Galena, Kansas
Current Conditions -  °F | °C
As of 8:53 PM on Saturday 25 Oct 2014 (Local Time) from KJLN Reporting Station
Clear Clear  
Wind Chill: 65°   Ceiling: Unl
Heat Index: 65°   Visibility: 8mi
Dew Point: 63°   Wind: 5mph
Humidity: 93%   Direction: 140°SE
Pressure: 30.02"   Gusts: NA
Location:  37.08°N, 94.64°W
Report Text: KJLN 260153Z 14004KT 8SM CLR 18/17 A3002 RMK AO2 SLP158 T01830172
Loading
Personal Weather Stations






























Interactive Weather Map
Tropical Storm Tracking
New forecast layout! Learn more

10-Day Weather Forecast

Advertisements
Track Severe Weather on mobile